sensor_id;sensor_type;location;lat;lon;timestamp;pressure;altitude;pressure_sealevel;temperature;humidity
59435;BME280;45241;49.768;8.636;2023-01-25T00:02:01;102066.75;;;4.23;90.06
59435;BME280;45241;49.768;8.636;2023-01-25T00:04:26;102061.75;;;3.66;91.99
59435;BME280;45241;49.768;8.636;2023-01-25T00:06:52;102060.19;;;3.76;92.01
59435;BME280;45241;49.768;8.636;2023-01-25T00:09:18;102056.78;;;3.61;93.28
59435;BME280;45241;49.768;8.636;2023-01-25T00:11:44;102057.94;;;3.70;92.75
59435;BME280;45241;49.768;8.636;2023-01-25T00:14:13;102060.00;;;3.92;91.45
59435;BME280;45241;49.768;8.636;2023-01-25T00:16:40;102057.03;;;3.96;89.80
59435;BME280;45241;49.768;8.636;2023-01-25T00:19:06;102053.72;;;3.80;92.06
59435;BME280;45241;49.768;8.636;2023-01-25T00:21:32;102059.91;;;3.93;92.19
59435;BME280;45241;49.768;8.636;2023-01-25T00:23:59;102060.84;;;3.92;92.86
59435;BME280;45241;49.768;8.636;2023-01-25T00:26:24;102057.13;;;3.95;91.16
59435;BME280;45241;49.768;8.636;2023-01-25T00:28:54;102057.13;;;3.95;91.49
59435;BME280;45241;49.768;8.636;2023-01-25T00:39:19;102065.72;;;3.73;91.94
59435;BME280;45241;49.768;8.636;2023-01-25T00:41:44;102049.69;;;3.74;91.99
59435;BME280;45241;49.768;8.636;2023-01-25T00:44:09;102050.00;;;3.83;92.77
59435;BME280;45241;49.768;8.636;2023-01-25T00:46:35;102055.53;;;3.92;90.78
59435;BME280;45241;49.768;8.636;2023-01-25T00:49:00;102049.00;;;4.11;90.88
59435;BME280;45241;49.768;8.636;2023-01-25T00:51:26;102054.38;;;3.84;91.83
59435;BME280;45241;49.768;8.636;2023-01-25T00:53:51;102047.19;;;4.11;91.40
59435;BME280;45241;49.768;8.636;2023-01-25T00:56:16;102045.66;;;3.82;91.00
59435;BME280;45241;49.768;8.636;2023-01-25T00:58:42;102043.78;;;4.09;91.86
59435;BME280;45241;49.768;8.636;2023-01-25T01:01:07;102046.03;;;4.15;89.94
59435;BME280;45241;49.768;8.636;2023-01-25T01:03:32;102044.31;;;4.01;91.20
59435;BME280;45241;49.768;8.636;2023-01-25T01:06:09;102041.44;;;3.92;91.46
59435;BME280;45241;49.768;8.636;2023-01-25T01:08:38;102041.66;;;4.01;91.95
59435;BME280;45241;49.768;8.636;2023-01-25T01:11:06;102043.66;;;3.85;91.89
59435;BME280;45241;49.768;8.636;2023-01-25T01:13:32;102037.41;;;3.99;92.11
59435;BME280;45241;49.768;8.636;2023-01-25T01:16:00;102032.78;;;3.63;92.60
59435;BME280;45241;49.768;8.636;2023-01-25T01:18:27;102041.75;;;3.87;93.33
59435;BME280;45241;49.768;8.636;2023-01-25T01:20:53;102033.88;;;3.73;93.81
59435;BME280;45241;49.768;8.636;2023-01-25T01:23:19;102039.63;;;3.92;94.12
59435;BME280;45241;49.768;8.636;2023-01-25T01:25:45;102032.84;;;4.01;92.14
59435;BME280;45241;49.768;8.636;2023-01-25T01:28:11;102039.09;;;3.87;92.77
59435;BME280;45241;49.768;8.636;2023-01-25T01:30:37;102039.09;;;3.87;93.38
59435;BME280;45241;49.768;8.636;2023-01-25T01:33:02;102039.38;;;3.70;94.58
59435;BME280;45241;49.768;8.636;2023-01-25T01:35:29;102036.75;;;3.95;92.89
59435;BME280;45241;49.768;8.636;2023-01-25T01:37:54;102039.19;;;3.73;92.70
59435;BME280;45241;49.768;8.636;2023-01-25T01:40:19;102034.94;;;3.83;94.28
59435;BME280;45241;49.768;8.636;2023-01-25T01:43:03;102022.72;;;3.68;93.51
59435;BME280;45241;49.768;8.636;2023-01-25T01:51:04;102015.13;;;4.01;93.64
59435;BME280;45241;49.768;8.636;2023-01-25T01:53:33;102020.84;;;4.08;92.81
59435;BME280;45241;49.768;8.636;2023-01-25T01:56:01;102014.06;;;4.29;91.18
59435;BME280;45241;49.768;8.636;2023-01-25T01:58:29;102013.81;;;4.32;90.33
59435;BME280;45241;49.768;8.636;2023-01-25T02:00:56;102015.22;;;4.13;91.71
59435;BME280;45241;49.768;8.636;2023-01-25T02:03:21;102015.47;;;4.10;90.80
59435;BME280;45241;49.768;8.636;2023-01-25T02:06:00;102017.44;;;3.41;93.60
59435;BME280;45241;49.768;8.636;2023-01-25T02:08:31;102018.25;;;3.68;93.53
59435;BME280;45241;49.768;8.636;2023-01-25T02:10:57;102012.81;;;3.44;97.24
59435;BME280;45241;49.768;8.636;2023-01-25T02:13:23;102013.06;;;3.67;95.29
59435;BME280;45241;49.768;8.636;2023-01-25T02:15:50;102015.84;;;3.91;92.97
59435;BME280;45241;49.768;8.636;2023-01-25T02:18:17;102015.13;;;4.14;93.42
59435;BME280;45241;49.768;8.636;2023-01-25T02:20:45;102010.97;;;3.72;93.33
59435;BME280;45241;49.768;8.636;2023-01-25T02:25:42;102009.38;;;4.07;92.72
59435;BME280;45241;49.768;8.636;2023-01-25T02:28:13;102005.66;;;3.72;92.77
59435;BME280;45241;49.768;8.636;2023-01-25T02:30:41;102014.16;;;3.77;94.94
59435;BME280;45241;49.768;8.636;2023-01-25T02:33:07;101999.56;;;3.44;95.28
59435;BME280;45241;49.768;8.636;2023-01-25T02:35:42;102003.88;;;3.85;95.07
59435;BME280;45241;49.768;8.636;2023-01-25T02:38:11;102000.53;;;3.69;93.83
59435;BME280;45241;49.768;8.636;2023-01-25T02:40:43;101998.84;;;3.68;94.27
59435;BME280;45241;49.768;8.636;2023-01-25T02:43:10;102005.97;;;3.93;95.44
59435;BME280;45241;49.768;8.636;2023-01-25T02:45:35;101996.53;;;3.76;94.22
59435;BME280;45241;49.768;8.636;2023-01-25T02:48:00;101995.69;;;3.75;94.92
59435;BME280;45241;49.768;8.636;2023-01-25T02:50:26;102000.72;;;3.53;95.15
59435;BME280;45241;49.768;8.636;2023-01-25T02:52:51;101995.53;;;3.52;96.68
59435;BME280;45241;49.768;8.636;2023-01-25T02:55:16;102004.00;;;3.57;96.78
59435;BME280;45241;49.768;8.636;2023-01-25T02:57:42;102005.00;;;3.81;94.62
59435;BME280;45241;49.768;8.636;2023-01-25T03:00:07;102004.53;;;3.49;96.90
59435;BME280;45241;49.768;8.636;2023-01-25T03:02:33;102001.84;;;3.89;93.77
59435;BME280;45241;49.768;8.636;2023-01-25T03:04:58;101990.50;;;3.99;94.44
59435;BME280;45241;49.768;8.636;2023-01-25T03:07:24;101996.94;;;3.70;96.82
59435;BME280;45241;49.768;8.636;2023-01-25T03:09:49;101992.31;;;3.99;94.53
59435;BME280;45241;49.768;8.636;2023-01-25T03:12:15;101986.31;;;3.70;96.64
59435;BME280;45241;49.768;8.636;2023-01-25T03:14:40;101981.19;;;3.41;96.40
59435;BME280;45241;49.768;8.636;2023-01-25T03:17:05;101983.97;;;3.53;95.77
59435;BME280;45241;49.768;8.636;2023-01-25T03:19:30;101979.31;;;3.69;95.57
59435;BME280;45241;49.768;8.636;2023-01-25T03:21:56;101975.47;;;3.35;96.62
59435;BME280;45241;49.768;8.636;2023-01-25T03:24:23;101975.38;;;3.49;95.32
59435;BME280;45241;49.768;8.636;2023-01-25T03:26:48;101979.91;;;3.34;97.88
59435;BME280;45241;49.768;8.636;2023-01-25T03:29:32;101979.63;;;3.52;96.31
59435;BME280;45241;49.768;8.636;2023-01-25T03:31:57;101968.94;;;3.91;95.01
59435;BME280;45241;49.768;8.636;2023-01-25T03:34:23;101974.78;;;3.84;95.36
59435;BME280;45241;49.768;8.636;2023-01-25T03:36:48;101974.88;;;3.95;94.73
59435;BME280;45241;49.768;8.636;2023-01-25T03:39:13;101970.06;;;3.36;97.19
59435;BME280;45241;49.768;8.636;2023-01-25T03:41:39;101979.97;;;3.60;99.19
59435;BME280;45241;49.768;8.636;2023-01-25T03:44:04;101970.72;;;3.13;99.09
59435;BME280;45241;49.768;8.636;2023-01-25T03:46:29;101969.50;;;3.04;100.00
59435;BME280;45241;49.768;8.636;2023-01-25T03:48:54;101971.47;;;3.67;98.15
59435;BME280;45241;49.768;8.636;2023-01-25T03:51:20;101975.81;;;3.16;99.75
59435;BME280;45241;49.768;8.636;2023-01-25T03:53:45;101969.75;;;3.54;100.00
59435;BME280;45241;49.768;8.636;2023-01-25T03:56:10;101972.00;;;3.60;98.37
59435;BME280;45241;49.768;8.636;2023-01-25T03:58:41;101966.91;;;3.17;98.23
59435;BME280;45241;49.768;8.636;2023-01-25T04:01:07;101972.66;;;3.24;100.00
59435;BME280;45241;49.768;8.636;2023-01-25T04:03:33;101969.44;;;3.45;98.85
59435;BME280;45241;49.768;8.636;2023-01-25T04:05:59;101975.31;;;3.76;96.58
59435;BME280;45241;49.768;8.636;2023-01-25T04:08:25;101978.81;;;3.76;94.83
59435;BME280;45241;49.768;8.636;2023-01-25T04:10:52;101972.41;;;3.14;97.06
59435;BME280;45241;49.768;8.636;2023-01-25T04:13:19;101973.38;;;3.13;99.56
59435;BME280;45241;49.768;8.636;2023-01-25T04:15:44;101977.44;;;3.71;98.15
59435;BME280;45241;49.768;8.636;2023-01-25T04:18:09;101975.44;;;4.00;94.12
59435;BME280;45241;49.768;8.636;2023-01-25T04:20:35;101970.94;;;3.10;99.24
59435;BME280;45241;49.768;8.636;2023-01-25T04:23:00;101974.19;;;3.40;98.07
59435;BME280;45241;49.768;8.636;2023-01-25T04:25:25;101975.06;;;3.14;99.58
59435;BME280;45241;49.768;8.636;2023-01-25T04:27:51;101968.31;;;3.88;96.23
59435;BME280;45241;49.768;8.636;2023-01-25T04:30:16;101960.47;;;3.21;97.32
59435;BME280;45241;49.768;8.636;2023-01-25T04:32:41;101966.81;;;3.58;97.77
59435;BME280;45241;49.768;8.636;2023-01-25T04:35:07;101965.19;;;3.56;96.29
59435;BME280;45241;49.768;8.636;2023-01-25T04:37:32;101967.81;;;3.03;97.98
59435;BME280;45241;49.768;8.636;2023-01-25T04:39:58;101966.16;;;2.88;100.00
59435;BME280;45241;49.768;8.636;2023-01-25T04:42:23;101964.00;;;3.34;98.52
59435;BME280;45241;49.768;8.636;2023-01-25T04:44:48;101963.56;;;3.28;100.00
59435;BME280;45241;49.768;8.636;2023-01-25T04:47:14;101966.56;;;3.49;97.17
59435;BME280;45241;49.768;8.636;2023-01-25T04:49:39;101964.75;;;3.36;97.36
59435;BME280;45241;49.768;8.636;2023-01-25T04:52:04;101958.75;;;3.72;96.40
59435;BME280;45241;49.768;8.636;2023-01-25T04:54:30;101964.00;;;3.34;97.44
59435;BME280;45241;49.768;8.636;2023-01-25T04:56:55;101962.78;;;3.65;95.19
59435;BME280;45241;49.768;8.636;2023-01-25T04:59:20;101956.22;;;3.71;94.81
59435;BME280;45241;49.768;8.636;2023-01-25T05:01:45;101951.72;;;3.46;94.71
59435;BME280;45241;49.768;8.636;2023-01-25T05:04:11;101947.91;;;3.50;96.34
59435;BME280;45241;49.768;8.636;2023-01-25T05:06:36;101949.09;;;3.71;94.86
59435;BME280;45241;49.768;8.636;2023-01-25T05:09:01;101944.53;;;3.61;95.51
59435;BME280;45241;49.768;8.636;2023-01-25T05:11:27;101944.31;;;3.76;94.38
59435;BME280;45241;49.768;8.636;2023-01-25T05:13:52;101937.66;;;3.58;94.88
59435;BME280;45241;49.768;8.636;2023-01-25T05:16:19;101925.75;;;3.76;93.86
59435;BME280;45241;49.768;8.636;2023-01-25T05:18:44;101926.50;;;3.66;94.44
59435;BME280;45241;49.768;8.636;2023-01-25T05:21:09;101923.63;;;3.69;94.45
59435;BME280;45241;49.768;8.636;2023-01-25T05:23:55;101918.31;;;3.82;93.69
59435;BME280;45241;49.768;8.636;2023-01-25T05:26:20;101904.88;;;3.72;94.57
59435;BME280;45241;49.768;8.636;2023-01-25T05:29:04;101904.09;;;3.70;95.53
59435;BME280;45241;49.768;8.636;2023-01-25T05:31:29;101900.50;;;3.45;95.03
59435;BME280;45241;49.768;8.636;2023-01-25T05:33:54;101903.78;;;3.36;97.02
59435;BME280;45241;49.768;8.636;2023-01-25T05:36:20;101902.50;;;3.80;95.38
59435;BME280;45241;49.768;8.636;2023-01-25T05:38:45;101902.94;;;3.49;95.09
59435;BME280;45241;49.768;8.636;2023-01-25T05:41:10;101906.00;;;3.42;95.75
59435;BME280;45241;49.768;8.636;2023-01-25T05:43:35;101906.44;;;3.36;97.61
59435;BME280;45241;49.768;8.636;2023-01-25T05:46:01;101905.69;;;3.34;96.31
59435;BME280;45241;49.768;8.636;2023-01-25T05:48:26;101899.84;;;3.29;97.30
59435;BME280;45241;49.768;8.636;2023-01-25T05:50:52;101904.00;;;3.46;97.14
59435;BME280;45241;49.768;8.636;2023-01-25T05:53:17;101897.66;;;3.61;93.60
59435;BME280;45241;49.768;8.636;2023-01-25T05:55:42;101904.88;;;3.72;92.84
59435;BME280;45241;49.768;8.636;2023-01-25T05:58:07;101906.56;;;3.60;93.92
59435;BME280;45241;49.768;8.636;2023-01-25T06:00:33;101904.66;;;3.62;93.11
59435;BME280;45241;49.768;8.636;2023-01-25T06:03:01;101904.78;;;3.08;96.27
59435;BME280;45241;49.768;8.636;2023-01-25T06:05:26;101898.53;;;2.70;98.55
59435;BME280;45241;49.768;8.636;2023-01-25T06:07:51;101908.31;;;2.82;98.56
59435;BME280;45241;49.768;8.636;2023-01-25T06:10:17;101896.91;;;3.46;97.05
59435;BME280;45241;49.768;8.636;2023-01-25T06:12:42;101901.72;;;3.14;98.87
59435;BME280;45241;49.768;8.636;2023-01-25T06:15:07;101905.38;;;3.64;96.72
59435;BME280;45241;49.768;8.636;2023-01-25T06:17:33;101911.66;;;2.98;100.00
59435;BME280;45241;49.768;8.636;2023-01-25T06:19:58;101905.81;;;3.45;97.34
59435;BME280;45241;49.768;8.636;2023-01-25T06:22:23;101905.88;;;3.19;98.23
59435;BME280;45241;49.768;8.636;2023-01-25T06:24:49;101909.75;;;3.00;100.00
59435;BME280;45241;49.768;8.636;2023-01-25T06:27:14;101911.16;;;3.06;100.00
59435;BME280;45241;49.768;8.636;2023-01-25T06:29:39;101909.38;;;2.92;100.00
59435;BME280;45241;49.768;8.636;2023-01-25T06:32:05;101912.94;;;3.05;99.66
59435;BME280;45241;49.768;8.636;2023-01-25T06:34:30;101906.63;;;3.21;97.69
59435;BME280;45241;49.768;8.636;2023-01-25T06:36:55;101901.31;;;2.81;99.37
59435;BME280;45241;49.768;8.636;2023-01-25T06:39:21;101906.16;;;2.74;99.50
59435;BME280;45241;49.768;8.636;2023-01-25T06:41:46;101896.22;;;3.30;99.83
59435;BME280;45241;49.768;8.636;2023-01-25T06:44:11;101896.72;;;2.70;100.00
59435;BME280;45241;49.768;8.636;2023-01-25T06:46:37;101891.91;;;3.55;97.60
59435;BME280;45241;49.768;8.636;2023-01-25T06:49:02;101892.03;;;3.01;97.81
59435;BME280;45241;49.768;8.636;2023-01-25T06:51:28;101900.47;;;3.20;98.34
59435;BME280;45241;49.768;8.636;2023-01-25T06:53:53;101893.06;;;3.51;96.74
59435;BME280;45241;49.768;8.636;2023-01-25T06:56:20;101893.00;;;3.00;99.66
59435;BME280;45241;49.768;8.636;2023-01-25T06:58:46;101891.38;;;3.50;97.76
59435;BME280;45241;49.768;8.636;2023-01-25T07:01:18;101888.19;;;3.70;97.00
59435;BME280;45241;49.768;8.636;2023-01-25T07:03:50;101896.91;;;3.46;98.13
59435;BME280;45241;49.768;8.636;2023-01-25T07:06:15;101902.00;;;3.50;97.73
59435;BME280;45241;49.768;8.636;2023-01-25T07:08:41;101901.00;;;3.25;96.49
59435;BME280;45241;49.768;8.636;2023-01-25T07:11:09;101896.84;;;3.08;98.77
59435;BME280;45241;49.768;8.636;2023-01-25T07:13:39;101888.50;;;3.40;98.19
59435;BME280;45241;49.768;8.636;2023-01-25T07:16:06;101892.53;;;3.33;98.21
59435;BME280;45241;49.768;8.636;2023-01-25T07:18:33;101896.66;;;3.24;99.10
59435;BME280;45241;49.768;8.636;2023-01-25T07:21:06;101892.13;;;3.64;95.13
59435;BME280;45241;49.768;8.636;2023-01-25T07:23:31;101896.22;;;4.06;93.38
59435;BME280;45241;49.768;8.636;2023-01-25T07:25:58;101893.03;;;4.14;91.42
59435;BME280;45241;49.768;8.636;2023-01-25T07:28:24;101894.72;;;4.15;90.92
59435;BME280;45241;49.768;8.636;2023-01-25T07:30:49;101892.56;;;4.20;90.21
59435;BME280;45241;49.768;8.636;2023-01-25T07:33:15;101895.16;;;3.96;90.21
59435;BME280;45241;49.768;8.636;2023-01-25T07:35:41;101898.56;;;4.11;90.46
59435;BME280;45241;49.768;8.636;2023-01-25T07:38:06;101885.84;;;3.78;90.36
59435;BME280;45241;49.768;8.636;2023-01-25T07:40:32;101891.47;;;3.86;90.21
59435;BME280;45241;49.768;8.636;2023-01-25T07:42:57;101890.72;;;4.10;90.59
59435;BME280;45241;49.768;8.636;2023-01-25T07:45:23;101892.81;;;4.04;90.38
59435;BME280;45241;49.768;8.636;2023-01-25T07:47:57;101889.94;;;4.07;90.80
59435;BME280;45241;49.768;8.636;2023-01-25T07:50:23;101895.13;;;4.22;90.19
59435;BME280;45241;49.768;8.636;2023-01-25T07:52:49;101886.56;;;4.05;90.84
59435;BME280;45241;49.768;8.636;2023-01-25T07:55:14;101892.91;;;4.16;90.46
59435;BME280;45241;49.768;8.636;2023-01-25T07:57:39;101892.91;;;4.16;89.91
59435;BME280;45241;49.768;8.636;2023-01-25T08:00:05;101891.63;;;4.21;89.37
59435;BME280;45241;49.768;8.636;2023-01-25T08:02:31;101894.06;;;4.24;89.72
59435;BME280;45241;49.768;8.636;2023-01-25T08:04:57;101890.19;;;4.04;91.04
59435;BME280;45241;49.768;8.636;2023-01-25T08:07:22;101895.03;;;4.23;90.66
59435;BME280;45241;49.768;8.636;2023-01-25T08:09:48;101892.00;;;3.91;91.75
59435;BME280;45241;49.768;8.636;2023-01-25T08:12:13;101892.41;;;4.11;91.59
59435;BME280;45241;49.768;8.636;2023-01-25T08:14:38;101887.00;;;4.12;91.61
59435;BME280;45241;49.768;8.636;2023-01-25T08:17:04;101890.28;;;4.03;93.40
59435;BME280;45241;49.768;8.636;2023-01-25T08:19:29;101882.00;;;4.07;91.95
59435;BME280;45241;49.768;8.636;2023-01-25T08:21:54;101881.56;;;4.14;91.40
59435;BME280;45241;49.768;8.636;2023-01-25T08:24:20;101883.34;;;4.26;90.63
59435;BME280;45241;49.768;8.636;2023-01-25T08:26:45;101885.78;;;4.29;90.59
59435;BME280;45241;49.768;8.636;2023-01-25T08:29:11;101889.13;;;3.94;91.22
59435;BME280;45241;49.768;8.636;2023-01-25T08:31:39;101882.78;;;3.46;95.75
59435;BME280;45241;49.768;8.636;2023-01-25T08:34:05;101875.91;;;4.18;92.62
59435;BME280;45241;49.768;8.636;2023-01-25T08:36:31;101876.13;;;4.28;91.43
59435;BME280;45241;49.768;8.636;2023-01-25T08:39:02;101874.66;;;4.24;91.29
59435;BME280;45241;49.768;8.636;2023-01-25T08:41:30;101873.97;;;4.33;90.52
59435;BME280;45241;49.768;8.636;2023-01-25T08:43:56;101870.16;;;4.37;90.38
59435;BME280;45241;49.768;8.636;2023-01-25T08:46:23;101876.50;;;4.34;90.26
59435;BME280;45241;49.768;8.636;2023-01-25T08:48:52;101868.38;;;3.50;95.51
59435;BME280;45241;49.768;8.636;2023-01-25T08:51:18;101857.94;;;3.98;93.91
59435;BME280;45241;49.768;8.636;2023-01-25T08:53:43;101863.69;;;3.66;94.62
59435;BME280;45241;49.768;8.636;2023-01-25T08:56:11;101866.28;;;4.04;92.85
59435;BME280;45241;49.768;8.636;2023-01-25T08:58:38;101863.94;;;4.13;91.43
59435;BME280;45241;49.768;8.636;2023-01-25T09:01:06;101871.19;;;4.11;91.46
59435;BME280;45241;49.768;8.636;2023-01-25T09:03:50;101860.66;;;3.96;91.38
59435;BME280;45241;49.768;8.636;2023-01-25T09:06:17;101864.13;;;3.60;94.92
59435;BME280;45241;49.768;8.636;2023-01-25T09:08:42;101857.47;;;4.04;91.93
59435;BME280;45241;49.768;8.636;2023-01-25T09:11:15;101851.13;;;3.94;91.64
59435;BME280;45241;49.768;8.636;2023-01-25T09:13:41;101851.88;;;3.83;91.44
59435;BME280;45241;49.768;8.636;2023-01-25T09:16:12;101854.53;;;3.83;91.91
59435;BME280;45241;49.768;8.636;2023-01-25T09:18:39;101851.97;;;3.94;91.20
59435;BME280;45241;49.768;8.636;2023-01-25T09:21:09;101852.25;;;3.40;92.43
59435;BME280;45241;49.768;8.636;2023-01-25T09:23:35;101859.44;;;3.13;95.93
59435;BME280;45241;49.768;8.636;2023-01-25T09:26:02;101855.09;;;3.75;93.88
59435;BME280;45241;49.768;8.636;2023-01-25T09:28:28;101854.03;;;3.78;93.04
59435;BME280;45241;49.768;8.636;2023-01-25T09:31:03;101857.16;;;3.96;93.37
59435;BME280;45241;49.768;8.636;2023-01-25T09:33:31;101859.75;;;3.97;93.68
59435;BME280;45241;49.768;8.636;2023-01-25T09:35:57;101851.59;;;3.88;92.13
59435;BME280;45241;49.768;8.636;2023-01-25T09:38:22;101853.91;;;3.92;94.42
59435;BME280;45241;49.768;8.636;2023-01-25T09:43:44;101847.03;;;3.52;94.37
59435;BME280;45241;49.768;8.636;2023-01-25T09:46:25;101849.69;;;3.77;94.22
59435;BME280;45241;49.768;8.636;2023-01-25T09:51:57;101848.97;;;4.12;91.22
59435;BME280;45241;49.768;8.636;2023-01-25T09:54:24;101843.97;;;3.45;93.19
59435;BME280;45241;49.768;8.636;2023-01-25T09:56:52;101850.13;;;3.45;97.41
59435;BME280;45241;49.768;8.636;2023-01-25T09:59:20;101843.97;;;3.58;97.63
59435;BME280;45241;49.768;8.636;2023-01-25T10:02:03;101841.41;;;3.56;97.67
59435;BME280;45241;49.768;8.636;2023-01-25T10:04:38;101832.31;;;3.47;96.44
59435;BME280;45241;49.768;8.636;2023-01-25T10:07:18;101839.59;;;3.69;96.81
59435;BME280;45241;49.768;8.636;2023-01-25T10:12:18;101838.97;;;3.66;95.12
59435;BME280;45241;49.768;8.636;2023-01-25T10:14:45;101837.72;;;3.33;97.50
59435;BME280;45241;49.768;8.636;2023-01-25T10:17:37;101835.47;;;3.78;95.37
59435;BME280;45241;49.768;8.636;2023-01-25T10:22:59;101834.09;;;3.72;95.52
59435;BME280;45241;49.768;8.636;2023-01-25T10:25:34;101831.94;;;3.90;94.34
59435;BME280;45241;49.768;8.636;2023-01-25T10:28:22;101825.91;;;3.88;93.33
59435;BME280;45241;49.768;8.636;2023-01-25T10:30:57;101820.19;;;3.69;92.80
59435;BME280;45241;49.768;8.636;2023-01-25T10:33:25;101817.78;;;4.02;91.75
59435;BME280;45241;49.768;8.636;2023-01-25T10:35:54;101818.13;;;3.98;90.86
59435;BME280;45241;49.768;8.636;2023-01-25T10:41:04;101806.38;;;3.76;93.34
59435;BME280;45241;49.768;8.636;2023-01-25T10:43:31;101796.19;;;3.83;94.03
59435;BME280;45241;49.768;8.636;2023-01-25T10:45:56;101789.94;;;4.08;91.39
59435;BME280;45241;49.768;8.636;2023-01-25T10:48:25;101778.34;;;3.98;91.24
59435;BME280;45241;49.768;8.636;2023-01-25T10:50:53;101781.28;;;3.93;93.25
59435;BME280;45241;49.768;8.636;2023-01-25T10:53:20;101774.38;;;3.67;93.03
59435;BME280;45241;49.768;8.636;2023-01-25T11:01:06;101762.06;;;4.02;91.09
59435;BME280;45241;49.768;8.636;2023-01-25T11:03:39;101765.38;;;3.93;91.26
59435;BME280;45241;49.768;8.636;2023-01-25T11:06:07;101764.72;;;3.66;91.70
59435;BME280;45241;49.768;8.636;2023-01-25T11:08:40;101756.78;;;3.53;94.56
59435;BME280;45241;49.768;8.636;2023-01-25T11:11:26;101746.56;;;3.96;92.07
59435;BME280;45241;49.768;8.636;2023-01-25T11:13:55;101746.88;;;4.04;91.47
59435;BME280;45241;49.768;8.636;2023-01-25T11:18:51;101733.88;;;3.89;91.03
59435;BME280;45241;49.768;8.636;2023-01-25T11:21:20;101731.06;;;4.03;90.96
59435;BME280;45241;49.768;8.636;2023-01-25T11:23:57;101721.06;;;4.06;90.84
59435;BME280;45241;49.768;8.636;2023-01-25T11:26:23;101718.47;;;4.18;89.71
59435;BME280;45241;49.768;8.636;2023-01-25T11:28:48;101711.53;;;4.04;90.15
59435;BME280;45241;49.768;8.636;2023-01-25T11:31:16;101711.75;;;4.25;90.19
59435;BME280;45241;49.768;8.636;2023-01-25T11:33:43;101715.16;;;4.03;90.69
59435;BME280;45241;49.768;8.636;2023-01-25T11:38:38;101712.94;;;3.73;93.38
59435;BME280;45241;49.768;8.636;2023-01-25T11:41:23;101705.44;;;3.91;91.38
59435;BME280;45241;49.768;8.636;2023-01-25T12:08:42;101657.13;;;3.74;94.50
59435;BME280;45241;49.768;8.636;2023-01-25T12:21:59;101624.25;;;3.40;94.50
59435;BME280;45241;49.768;8.636;2023-01-25T12:24:50;101616.84;;;4.04;92.55
59435;BME280;45241;49.768;8.636;2023-01-25T12:33:37;101599.22;;;4.03;92.12
59435;BME280;45241;49.768;8.636;2023-01-25T12:36:14;101592.16;;;4.15;90.19
59435;BME280;45241;49.768;8.636;2023-01-25T12:41:27;101583.09;;;3.71;92.96
59435;BME280;45241;49.768;8.636;2023-01-25T12:44:07;101578.53;;;4.20;90.03
59435;BME280;45241;49.768;8.636;2023-01-25T12:46:53;101571.97;;;4.01;90.91
59435;BME280;45241;49.768;8.636;2023-01-25T12:49:29;101567.03;;;3.97;89.81
59435;BME280;45241;49.768;8.636;2023-01-25T12:52:00;101563.34;;;4.33;88.64
59435;BME280;45241;49.768;8.636;2023-01-25T12:54:34;101564.72;;;3.68;91.18
59435;BME280;45241;49.768;8.636;2023-01-25T12:57:10;101559.44;;;4.03;91.64
59435;BME280;45241;49.768;8.636;2023-01-25T13:00:26;101559.41;;;3.92;91.37
59435;BME280;45241;49.768;8.636;2023-01-25T13:03:30;101549.53;;;4.05;91.06
59435;BME280;45241;49.768;8.636;2023-01-25T13:06:14;101545.03;;;3.95;90.63
59435;BME280;45241;49.768;8.636;2023-01-25T13:11:35;101550.03;;;3.64;92.78
59435;BME280;45241;49.768;8.636;2023-01-25T13:14:35;101549.06;;;3.65;92.23
59435;BME280;45241;49.768;8.636;2023-01-25T13:19:46;101536.28;;;4.17;89.61
59435;BME280;45241;49.768;8.636;2023-01-25T13:22:12;101543.75;;;4.00;91.17
59435;BME280;45241;49.768;8.636;2023-01-25T13:27:31;101530.31;;;3.80;93.57
59435;BME280;45241;49.768;8.636;2023-01-25T13:30:29;101530.72;;;4.09;91.65
59435;BME280;45241;49.768;8.636;2023-01-25T13:33:01;101525.31;;;4.10;90.53
59435;BME280;45241;49.768;8.636;2023-01-25T13:35:31;101512.38;;;3.94;90.09
59435;BME280;45241;49.768;8.636;2023-01-25T13:38:44;101515.88;;;3.84;93.33
59435;BME280;45241;49.768;8.636;2023-01-25T13:41:03;101500.81;;;4.18;90.56
59435;BME280;45241;49.768;8.636;2023-01-25T13:43:29;101498.69;;;4.23;89.73
59435;BME280;45241;49.768;8.636;2023-01-25T13:45:54;101489.69;;;3.90;91.34
59435;BME280;45241;49.768;8.636;2023-01-25T13:48:21;101492.50;;;4.11;92.27
59435;BME280;45241;49.768;8.636;2023-01-25T13:50:54;101479.69;;;3.94;89.90
59435;BME280;45241;49.768;8.636;2023-01-25T13:53:22;101472.22;;;3.99;90.60
59435;BME280;45241;49.768;8.636;2023-01-25T13:55:53;101482.22;;;3.84;90.97
59435;BME280;45241;49.768;8.636;2023-01-25T13:58:30;101478.41;;;4.11;89.53
59435;BME280;45241;49.768;8.636;2023-01-25T14:00:57;101475.50;;;4.14;89.38
59435;BME280;45241;49.768;8.636;2023-01-25T14:06:01;101473.44;;;3.49;92.17
59435;BME280;45241;49.768;8.636;2023-01-25T14:08:29;101473.41;;;3.13;93.48
59435;BME280;45241;49.768;8.636;2023-01-25T14:10:56;101466.31;;;3.14;94.58
59435;BME280;45241;49.768;8.636;2023-01-25T14:13:21;101461.91;;;3.61;95.10
59435;BME280;45241;49.768;8.636;2023-01-25T14:18:25;101454.00;;;3.37;96.26
59435;BME280;45241;49.768;8.636;2023-01-25T14:20:50;101457.09;;;3.66;93.43
59435;BME280;45241;49.768;8.636;2023-01-25T14:23:28;101460.19;;;3.49;93.28
59435;BME280;45241;49.768;8.636;2023-01-25T14:25:55;101451.00;;;3.41;93.72
59435;BME280;45241;49.768;8.636;2023-01-25T14:28:23;101444.09;;;3.74;91.74
59435;BME280;45241;49.768;8.636;2023-01-25T14:30:50;101439.44;;;3.42;93.28
59435;BME280;45241;49.768;8.636;2023-01-25T14:33:20;101428.81;;;3.89;92.52
59435;BME280;45241;49.768;8.636;2023-01-25T14:35:50;101428.69;;;4.13;89.64
59435;BME280;45241;49.768;8.636;2023-01-25T14:38:27;101430.00;;;3.96;93.08
59435;BME280;45241;49.768;8.636;2023-01-25T14:41:02;101427.69;;;3.58;94.09
59435;BME280;45241;49.768;8.636;2023-01-25T14:43:31;101432.16;;;3.80;91.93
59435;BME280;45241;49.768;8.636;2023-01-25T14:45:56;101427.81;;;3.79;92.03